Panama City, FL (32403)

11:10 AM CDT on July 24, 2016 (GMT -0500)
Panama City Tyndall AFB | | Change Station

Elev 16 ft 30.07 °N, 85.58 °W | Updated 14 minutes ago

Clear
Clear
87 °F
Feels Like 97 °F
N
6
Wind Variable Wind from ENE

Today
High -- | Low -- °F
--% Chance of Precip.
Yesterday
High -- | Low -- °F
Precip. -- in
Pressure 30.03 in
Visibility 10.0 miles
Clouds Clear
Heat Index 97 °F
Dew Point 75 °F
Humidity 68%
Rainfall 0.00 in
Snow Depth Not available.
5:56 AM 7:40 PM
Waning Gibbous, 75% visible
METAR KPAM 241556Z AUTO 06005KT 10SM CLR 31/24 A3002 RMK AO2 SLP169 T03060240 $
Pressure 30.03 in
Visibility 10.0 miles
Clouds Clear
Heat Index 97 °F
Dew Point 75 °F
Humidity 68%
Rainfall 0.00 in
Snow Depth Not available.
5:56 AM 7:40 PM
Waning Gibbous, 75% visible
METAR KPAM 241556Z AUTO 06005KT 10SM CLR 31/24 A3002 RMK AO2 SLP169 T03060240 $

10-Day Weather Forecast

Almanac

Astronomy

Jul. 24, 2016 Rise Set
Actual Time
Civil Twilight
Nautical Twilight
Astronomical Twilight
Moon
Length of Visible Light
Length of Day
Tomorrow will be .
, % of the Moon is Illuminated

Today's Extremes

State Highs State Lows

Community

WunderPhotos

Upload Photos

1,927,117 photos uploaded!

WunderBlog® & News

Nearby

Air Quality

  Air Quality AQ Index Pollutant
Not available.

Snow Depth

Station Depth Elevation

Earthquake Activity

City Distance Mag. Time & Date
Minimum magnitude displayed is 2.5.

Coastal Water Temperatures

Place Temperature

Stations

Nearby Weather Stations

Station Location Temp. Windchill Dew Point Humidity Wind Precip. Elev Updated Type
                   

Watches & Warnings

There are currently no watches in effect.